createdAt,value
2023-01-09T00:01:12.094Z,99695.94
2023-01-09T00:03:39.574Z,99704.63
2023-01-09T00:06:06.964Z,99707.22
2023-01-09T00:08:34.327Z,99708.97
2023-01-09T00:11:01.659Z,99713.28
2023-01-09T00:13:29.297Z,99720.22
2023-01-09T00:15:56.781Z,99708.97
2023-01-09T00:18:24.066Z,99715.00
2023-01-09T00:20:51.335Z,99718.50
2023-01-09T00:23:18.706Z,99709.81
2023-01-09T00:25:45.973Z,99712.44
2023-01-09T00:28:13.365Z,99715.88
2023-01-09T00:30:40.686Z,99725.44
2023-01-09T00:33:08.107Z,99726.28
2023-01-09T00:35:35.567Z,99728.91
2023-01-09T00:38:03.680Z,99731.50
2023-01-09T00:40:31.331Z,99732.38
2023-01-09T00:42:59.055Z,99728.91
2023-01-09T00:45:29.642Z,99736.69
2023-01-09T00:48:07.404Z,99725.41
2023-01-09T00:50:35.957Z,99736.69
2023-01-09T00:53:15.890Z,99733.22
2023-01-09T00:55:43.426Z,99742.78
2023-01-09T00:58:10.980Z,99750.59
2023-01-09T01:00:38.592Z,99748.84
2023-01-09T01:03:06.152Z,99767.94
2023-01-09T01:05:52.274Z,99766.19
2023-01-09T01:08:20.649Z,99778.31
2023-01-09T01:10:49.436Z,99770.44
2023-01-09T01:13:17.310Z,99761.78
2023-01-09T01:15:46.252Z,99774.78
2023-01-09T01:18:14.479Z,99774.78
2023-01-09T01:20:43.911Z,99788.66
2023-01-09T01:23:11.711Z,99794.69
2023-01-09T01:25:41.440Z,99803.34
2023-01-09T01:28:09.157Z,99812.00
2023-01-09T01:30:41.718Z,99805.94
2023-01-09T01:33:10.773Z,99812.84
2023-01-09T01:35:38.495Z,99814.53
2023-01-09T01:38:06.219Z,99819.78
2023-01-09T01:40:34.590Z,99811.97
2023-01-09T01:43:02.156Z,99805.94
2023-01-09T01:45:30.459Z,99811.13
2023-01-09T01:48:15.934Z,99825.84
2023-01-09T01:50:46.179Z,99823.19
2023-01-09T01:53:17.536Z,99822.38
2023-01-09T01:55:49.991Z,99824.03
2023-01-09T01:58:17.871Z,99817.94
2023-01-09T02:00:47.943Z,99829.13
2023-01-09T02:03:18.928Z,99841.25
2023-01-09T02:05:46.383Z,99841.25
2023-01-09T02:08:14.124Z,99844.72
2023-01-09T02:10:42.811Z,99859.38
2023-01-09T02:13:11.166Z,99881.94
2023-01-09T02:16:02.234Z,99890.59
2023-01-09T02:18:41.951Z,99884.56
2023-01-09T02:21:15.511Z,99893.31
2023-01-09T02:24:20.505Z,99895.91
2023-01-09T02:27:19.864Z,99908.91
2023-01-09T02:30:24.732Z,99904.50
2023-01-09T02:32:52.203Z,99902.78
2023-01-09T02:35:44.003Z,99909.66
2023-01-09T02:38:23.657Z,99913.16
2023-01-09T02:41:13.237Z,99915.69
2023-01-09T02:43:41.824Z,99900.13
2023-01-09T02:46:22.802Z,99904.59
2023-01-09T02:48:53.998Z,99903.63
2023-01-09T02:51:32.387Z,99913.25
2023-01-09T02:54:18.759Z,99917.50
2023-01-09T02:56:52.383Z,99908.78
2023-01-09T02:59:27.261Z,99921.66
2023-01-09T03:02:06.462Z,99924.22
2023-01-09T03:04:44.324Z,99917.25
2023-01-09T03:07:38.320Z,99915.56
2023-01-09T03:10:34.847Z,99912.25
2023-01-09T03:13:03.623Z,99913.09
2023-01-09T03:15:36.421Z,99912.28
2023-01-09T03:18:07.617Z,99922.63
2023-01-09T03:20:35.672Z,99920.00
2023-01-09T03:23:06.499Z,99916.47
2023-01-09T03:25:34.748Z,99919.13
2023-01-09T03:28:04.988Z,99921.69
2023-01-09T03:30:34.384Z,99927.69
2023-01-09T03:33:02.097Z,99924.25
2023-01-09T03:35:29.691Z,99923.31
2023-01-09T03:37:59.042Z,99939.81
2023-01-09T03:40:26.512Z,99932.91
2023-01-09T03:42:53.833Z,99948.44
2023-01-09T03:45:21.188Z,99952.81
2023-01-09T03:47:48.672Z,99938.97
2023-01-09T03:50:16.197Z,99938.00
2023-01-09T03:52:43.480Z,99926.84
2023-01-09T03:55:10.664Z,99945.88
2023-01-09T03:57:37.763Z,99945.03
2023-01-09T04:00:05.245Z,99957.16
2023-01-09T04:02:39.698Z,99961.56
2023-01-09T04:05:08.036Z,99962.34
2023-01-09T04:07:35.531Z,99971.88
2023-01-09T04:10:03.123Z,99976.13
2023-01-09T04:12:30.482Z,99976.13
2023-01-09T04:14:58.239Z,99987.38
2023-01-09T04:17:25.628Z,99986.50
2023-01-09T04:19:53.003Z,99989.84
2023-01-09T04:22:20.116Z,99993.44
2023-01-09T04:24:47.347Z,99998.63
2023-01-09T04:27:14.724Z,99989.16
2023-01-09T04:29:42.159Z,99990.06
2023-01-09T04:32:09.443Z,99994.28
2023-01-09T04:34:36.645Z,100001.19
2023-01-09T04:37:03.784Z,100005.53
2023-01-09T04:39:31.066Z,100004.66
2023-01-09T04:41:58.373Z,100008.00
2023-01-09T04:44:29.139Z,100004.66
2023-01-09T04:46:57.423Z,100013.31
2023-01-09T04:49:24.645Z,100007.19
2023-01-09T04:51:52.011Z,100011.56
2023-01-09T04:54:19.342Z,100016.59
2023-01-09T04:56:46.936Z,100027.03
2023-01-09T04:59:14.485Z,100025.38
2023-01-09T05:01:41.940Z,100031.38
2023-01-09T05:04:09.373Z,100023.56
2023-01-09T05:06:36.884Z,100038.25
2023-01-09T05:09:04.045Z,100032.19
2023-01-09T05:11:31.725Z,100039.16
2023-01-09T05:13:58.910Z,100046.88
2023-01-09T05:16:26.348Z,100045.88
2023-01-09T05:18:56.789Z,100055.47
2023-01-09T05:21:24.438Z,100048.44
2023-01-09T05:23:51.589Z,100058.97
2023-01-09T05:26:24.268Z,100064.22
2023-01-09T05:28:52.255Z,100066.66
2023-01-09T05:31:20.141Z,100081.34
2023-01-09T05:33:47.509Z,100078.00
2023-01-09T05:36:15.177Z,100077.00
2023-01-09T05:38:42.463Z,100071.72
2023-01-09T05:41:09.837Z,100078.72
2023-01-09T05:43:37.131Z,100078.69
2023-01-09T05:46:04.399Z,100081.13
2023-01-09T05:48:31.730Z,100083.75
2023-01-09T05:50:58.983Z,100081.81
2023-01-09T05:53:26.325Z,100091.38
2023-01-09T05:55:53.502Z,100099.13
2023-01-09T05:58:20.753Z,100100.00
2023-01-09T06:00:48.712Z,100100.81
2023-01-09T06:03:16.048Z,100105.28
2023-01-09T06:05:43.298Z,100111.25
2023-01-09T06:08:10.560Z,100125.00
2023-01-09T06:10:37.729Z,100122.53
2023-01-09T06:13:04.976Z,100125.88
2023-01-09T06:15:32.173Z,100125.88
2023-01-09T06:17:59.513Z,100144.97
2023-01-09T06:20:26.763Z,100137.09
2023-01-09T06:22:53.990Z,100143.09
2023-01-09T06:25:21.167Z,100145.69
2023-01-09T06:27:49.340Z,100149.13
2023-01-09T06:30:16.637Z,100155.00
2023-01-09T06:32:43.826Z,100158.47
2023-01-09T06:35:11.902Z,100162.75
2023-01-09T06:37:39.209Z,100152.38
2023-01-09T06:40:06.973Z,100175.50
2023-01-09T06:42:34.406Z,100173.72
2023-01-09T06:45:01.642Z,100184.03
2023-01-09T06:47:29.027Z,100189.19
2023-01-09T06:49:57.692Z,100196.88
2023-01-09T06:52:25.003Z,100204.03
2023-01-09T06:54:52.224Z,100214.25
2023-01-09T06:57:19.511Z,100212.63
2023-01-09T06:59:46.612Z,100227.66
2023-01-09T07:02:18.374Z,100226.38
2023-01-09T07:04:45.717Z,100236.22
2023-01-09T07:07:13.000Z,100250.97
2023-01-09T07:09:40.250Z,100256.13
2023-01-09T07:12:07.507Z,100245.28
2023-01-09T07:14:34.791Z,100246.19
2023-01-09T07:17:02.078Z,100243.56
2023-01-09T07:19:29.473Z,100241.75
2023-01-09T07:21:56.661Z,100239.31
2023-01-09T07:24:23.955Z,100254.91
2023-01-09T07:26:51.160Z,100264.56
2023-01-09T07:29:18.437Z,100266.25
2023-01-09T07:31:45.666Z,100263.31
2023-01-09T07:34:13.000Z,100275.31
2023-01-09T07:36:40.166Z,100276.28
2023-01-09T07:39:09.173Z,100287.59
2023-01-09T07:41:36.299Z,100290.97
2023-01-09T07:44:03.635Z,100297.94
2023-01-09T07:46:30.903Z,100308.34
2023-01-09T07:48:58.183Z,100314.19
2023-01-09T07:51:25.315Z,100307.59
2023-01-09T07:53:52.529Z,100317.94
2023-01-09T07:56:19.734Z,100315.31
2023-01-09T07:58:47.093Z,100317.06
2023-01-09T08:01:14.487Z,100318.72
2023-01-09T08:03:41.910Z,100323.00
2023-01-09T08:06:10.337Z,100324.81
2023-01-09T08:08:37.612Z,100337.81
2023-01-09T08:11:04.916Z,100341.28
2023-01-09T08:13:32.204Z,100344.88
2023-01-09T08:15:59.609Z,100356.22
2023-01-09T08:18:26.796Z,100360.66
2023-01-09T08:20:53.959Z,100357.38
2023-01-09T08:23:23.708Z,100358.69
2023-01-09T08:25:51.032Z,100362.53
2023-01-09T08:28:18.364Z,100368.97
2023-01-09T08:30:46.777Z,100377.22
2023-01-09T08:33:14.380Z,100369.84
2023-01-09T08:35:42.958Z,100385.91
2023-01-09T08:38:10.656Z,100388.81
2023-01-09T08:40:38.105Z,100398.63
2023-01-09T08:43:24.275Z,100388.41
2023-01-09T08:46:09.937Z,100398.78
2023-01-09T08:48:37.170Z,100408.41
2023-01-09T08:51:04.464Z,100408.63
2023-01-09T08:53:31.883Z,100413.06
2023-01-09T08:55:59.298Z,100415.75
2023-01-09T08:58:26.642Z,100411.38
2023-01-09T09:00:53.794Z,100424.38
2023-01-09T09:03:21.849Z,100427.88
2023-01-09T09:05:49.253Z,100422.72
2023-01-09T09:08:16.666Z,100424.50
2023-01-09T09:10:43.913Z,100434.06
2023-01-09T09:13:11.114Z,100428.84
2023-01-09T09:15:39.134Z,100440.22
2023-01-09T09:18:07.816Z,100441.06
2023-01-09T09:20:36.531Z,100450.66
2023-01-09T09:23:03.838Z,100452.41
2023-01-09T09:25:31.417Z,100462.00
2023-01-09T09:28:01.243Z,100468.97
2023-01-09T09:30:28.720Z,100475.09
2023-01-09T09:32:57.360Z,100488.16
2023-01-09T09:35:24.887Z,100505.59
2023-01-09T09:37:56.420Z,100512.63
2023-01-09T09:40:38.869Z,100514.34
2023-01-09T09:43:34.373Z,100509.97
2023-01-09T09:46:07.893Z,100521.31
2023-01-09T09:48:43.285Z,100517.81
2023-01-09T09:51:13.935Z,100523.00
2023-01-09T09:53:41.269Z,100529.13
2023-01-09T09:56:11.894Z,100552.72
2023-01-09T09:58:40.824Z,100544.84
2023-01-09T10:01:09.849Z,100544.00
2023-01-09T10:03:49.245Z,100555.34
2023-01-09T10:06:34.382Z,100552.69
2023-01-09T10:09:10.274Z,100561.38
2023-01-09T10:11:43.211Z,100560.44
2023-01-09T10:14:23.196Z,100568.19
2023-01-09T10:16:54.246Z,100558.59
2023-01-09T10:19:33.880Z,100562.16
2023-01-09T10:22:01.343Z,100579.66
2023-01-09T10:24:28.648Z,100589.31
2023-01-09T10:26:57.270Z,100598.06
2023-01-09T10:29:36.680Z,100591.97
2023-01-09T10:32:03.991Z,100594.59
2023-01-09T10:34:49.854Z,100602.47
2023-01-09T10:37:36.795Z,100604.19
2023-01-09T10:40:08.099Z,100613.78
2023-01-09T10:42:41.167Z,100623.41
2023-01-09T10:45:27.039Z,100598.94
2023-01-09T10:47:58.227Z,100586.75
2023-01-09T10:50:28.242Z,100595.44
2023-01-09T10:52:56.359Z,100596.31
2023-01-09T10:55:38.836Z,100599.84
2023-01-09T10:58:13.082Z,100609.44
2023-01-09T11:00:40.866Z,100609.41
2023-01-09T11:03:18.150Z,100617.25
2023-01-09T11:05:50.391Z,100609.38
2023-01-09T11:08:29.897Z,100602.31
2023-01-09T11:10:58.390Z,100611.81
2023-01-09T11:13:30.039Z,100618.81
2023-01-09T11:16:00.393Z,100625.81
2023-01-09T11:18:27.605Z,100621.44
2023-01-09T11:20:54.907Z,100631.00
2023-01-09T11:23:27.459Z,100636.31
2023-01-09T11:25:56.721Z,100634.53
2023-01-09T11:28:24.673Z,100647.66
2023-01-09T11:32:02.108Z,100630.16
2023-01-09T11:34:33.094Z,100637.19
2023-01-09T11:37:10.548Z,100647.63
2023-01-09T11:39:41.938Z,100652.84
2023-01-09T11:42:48.434Z,100659.81
2023-01-09T11:45:20.329Z,100658.13
2023-01-09T11:47:48.230Z,100659.06
2023-01-09T11:50:30.800Z,100666.94
2023-01-09T11:53:20.509Z,100670.47
2023-01-09T11:55:58.271Z,100680.09
2023-01-09T11:58:28.662Z,100683.63
2023-01-09T12:01:08.291Z,100687.97
2023-01-09T12:03:57.472Z,100703.72
2023-01-09T12:06:28.179Z,100705.44
2023-01-09T12:09:08.008Z,100722.00
2023-01-09T12:11:49.721Z,100726.34
2023-01-09T12:14:33.435Z,100733.31
2023-01-09T12:17:00.841Z,100740.25
2023-01-09T12:19:42.416Z,100752.31
2023-01-09T12:22:49.019Z,100757.44
2023-01-09T12:25:42.813Z,100773.63
2023-01-09T12:28:22.541Z,100765.47
2023-01-09T12:31:17.874Z,100769.50
2023-01-09T12:34:03.482Z,100773.56
2023-01-09T12:36:59.409Z,100792.41
2023-01-09T12:39:45.475Z,100789.69
2023-01-09T12:42:31.291Z,100769.38
2023-01-09T12:44:58.871Z,100766.56
2023-01-09T12:47:35.344Z,100770.59
2023-01-09T12:50:15.030Z,100779.97
2023-01-09T12:52:49.370Z,100781.81
2023-01-09T12:55:25.576Z,100787.09
2023-01-09T12:57:57.961Z,100786.28
2023-01-09T13:00:32.410Z,100788.09
2023-01-09T13:03:12.105Z,100799.41
2023-01-09T13:05:42.969Z,100806.41
2023-01-09T13:08:29.167Z,100810.09
2023-01-09T13:11:19.355Z,100814.72
2023-01-09T13:13:54.479Z,100835.81
2023-01-09T13:16:29.009Z,100829.16
2023-01-09T13:19:23.256Z,100828.63
2023-01-09T13:21:51.899Z,100827.28
2023-01-09T13:24:31.077Z,100829.25
2023-01-09T13:27:07.882Z,100821.44
2023-01-09T13:29:43.065Z,100851.91
2023-01-09T13:32:28.827Z,100837.09
2023-01-09T13:35:01.292Z,100837.00
2023-01-09T13:37:35.622Z,100843.84
2023-01-09T13:40:26.632Z,100865.47
2023-01-09T13:43:07.706Z,100853.03
2023-01-09T13:45:39.785Z,100854.75
2023-01-09T13:48:19.251Z,100847.75
2023-01-09T13:50:50.996Z,100862.56
2023-01-09T13:53:18.445Z,100856.66
2023-01-09T13:55:58.531Z,100862.09
2023-01-09T13:58:39.664Z,100866.47
2023-01-09T14:01:35.596Z,100876.16
2023-01-09T14:04:16.071Z,100880.47
2023-01-09T14:07:22.625Z,100882.38
2023-01-09T14:09:52.958Z,100900.69
2023-01-09T14:12:22.191Z,100899.75
2023-01-09T14:14:52.137Z,100913.72
2023-01-09T14:17:38.562Z,100910.91
2023-01-09T14:20:09.288Z,100925.72
2023-01-09T14:22:50.291Z,100912.72
2023-01-09T14:25:27.358Z,100903.25
2023-01-09T14:27:54.854Z,100908.41
2023-01-09T14:30:27.947Z,100910.22
2023-01-09T14:33:21.543Z,100915.50
2023-01-09T14:36:16.801Z,100920.88
2023-01-09T14:39:06.480Z,100927.78
2023-01-09T14:42:02.483Z,100929.50
2023-01-09T14:45:01.018Z,100952.13
2023-01-09T14:47:31.545Z,100954.78
2023-01-09T14:50:15.297Z,100960.94
2023-01-09T14:52:49.669Z,100964.41
2023-01-09T14:55:31.548Z,100965.22
2023-01-09T14:58:21.374Z,100970.59
2023-01-09T15:00:53.715Z,100975.78
2023-01-09T15:03:23.921Z,100981.88
2023-01-09T15:05:52.924Z,100986.09
2023-01-09T15:08:25.891Z,100996.47
2023-01-09T15:10:56.188Z,100992.09
2023-01-09T15:13:37.281Z,101012.03
2023-01-09T15:16:06.690Z,101009.19
2023-01-09T15:18:42.132Z,101029.22
2023-01-09T15:21:18.739Z,101038.75
2023-01-09T15:23:46.582Z,101043.09
2023-01-09T15:26:15.252Z,101048.38
2023-01-09T15:28:44.046Z,101062.13
2023-01-09T15:31:17.881Z,101062.94
2023-01-09T15:33:47.803Z,101083.13
2023-01-09T15:36:26.227Z,101078.53
2023-01-09T15:38:54.929Z,101088.88
2023-01-09T15:41:48.575Z,101100.91
2023-01-09T15:44:28.216Z,101102.53
2023-01-09T15:46:59.309Z,101097.28
2023-01-09T15:49:27.250Z,101105.94
2023-01-09T15:51:55.943Z,101115.09
2023-01-09T15:54:31.699Z,101125.31
2023-01-09T15:57:27.180Z,101133.13
2023-01-09T15:59:56.202Z,101134.94
2023-01-09T16:02:44.744Z,101141.66
2023-01-09T16:05:16.724Z,101139.72
2023-01-09T16:07:49.564Z,101150.72
2023-01-09T16:10:30.508Z,101143.03
2023-01-09T16:12:58.418Z,101145.22
2023-01-09T16:15:27.397Z,101148.56
2023-01-09T16:18:16.434Z,101161.25
2023-01-09T16:20:44.933Z,101159.34
2023-01-09T16:23:35.374Z,101171.25
2023-01-09T16:26:14.461Z,101177.91
2023-01-09T16:28:43.065Z,101174.19
2023-01-09T16:31:24.151Z,101187.22
2023-01-09T16:34:24.059Z,101196.88
2023-01-09T16:36:52.842Z,101188.31
2023-01-09T16:39:20.991Z,101196.09
2023-01-09T16:42:07.205Z,101198.34
2023-01-09T16:44:34.695Z,101208.59
2023-01-09T16:47:02.022Z,101207.69
2023-01-09T16:49:29.430Z,101218.88
2023-01-09T16:51:57.232Z,101228.19
2023-01-09T16:54:24.619Z,101233.59
2023-01-09T16:56:53.660Z,101230.28
2023-01-09T16:59:27.401Z,101239.88
2023-01-09T17:01:55.447Z,101235.19
2023-01-09T17:04:25.921Z,101232.03
2023-01-09T17:06:53.547Z,101243.72
2023-01-09T17:09:27.500Z,101254.47
2023-01-09T17:11:55.138Z,101253.72
2023-01-09T17:14:22.510Z,101262.63
2023-01-09T17:16:49.988Z,101264.09
2023-01-09T17:19:19.588Z,101263.72
2023-01-09T17:21:47.177Z,101267.31
2023-01-09T17:24:34.210Z,101267.72
2023-01-09T17:27:20.961Z,101273.53
2023-01-09T17:29:48.779Z,101277.00
2023-01-09T17:32:18.063Z,101285.50
2023-01-09T17:34:45.557Z,101285.44
2023-01-09T17:37:16.553Z,101295.50
2023-01-09T17:39:45.440Z,101302.38
2023-01-09T17:42:12.836Z,101297.00
2023-01-09T17:44:40.212Z,101307.41
2023-01-09T17:47:14.993Z,101308.47
2023-01-09T17:49:43.039Z,101312.34
2023-01-09T17:52:10.586Z,101316.75
2023-01-09T17:54:38.696Z,101322.38
2023-01-09T17:57:07.694Z,101317.78
2023-01-09T17:59:35.706Z,101322.97
2023-01-09T18:02:03.392Z,101328.91
2023-01-09T18:04:30.830Z,101333.16
2023-01-09T18:06:58.088Z,101333.16
2023-01-09T18:09:25.312Z,101344.06
2023-01-09T18:11:52.711Z,101341.41
2023-01-09T18:14:20.039Z,101348.50
2023-01-09T18:16:47.450Z,101351.94
2023-01-09T18:19:14.862Z,101357.25
2023-01-09T18:21:42.176Z,101363.00
2023-01-09T18:24:09.823Z,101364.09
2023-01-09T18:26:37.309Z,101380.22
2023-01-09T18:29:05.298Z,101384.50
2023-01-09T18:31:33.536Z,101392.47
2023-01-09T18:34:05.361Z,101392.56
2023-01-09T18:36:33.791Z,101403.34
2023-01-09T18:39:03.381Z,101395.09
2023-01-09T18:41:31.648Z,101401.47
2023-01-09T18:44:01.160Z,101406.34
2023-01-09T18:46:32.692Z,101418.13
2023-01-09T18:49:02.678Z,101423.09
2023-01-09T18:51:31.659Z,101426.06
2023-01-09T18:53:59.115Z,101421.78
2023-01-09T18:56:26.678Z,101427.50
2023-01-09T18:58:58.790Z,101434.31
2023-01-09T19:01:28.864Z,101441.31
2023-01-09T19:03:57.502Z,101440.75
2023-01-09T19:06:26.423Z,101440.06
2023-01-09T19:08:55.147Z,101433.22
2023-01-09T19:11:22.702Z,101436.09
2023-01-09T19:13:50.973Z,101433.72
2023-01-09T19:16:19.401Z,101446.84
2023-01-09T19:18:46.908Z,101451.41
2023-01-09T19:21:20.589Z,101463.56
2023-01-09T19:23:49.291Z,101472.38
2023-01-09T19:26:18.239Z,101468.63
2023-01-09T19:28:46.786Z,101474.97
2023-01-09T19:31:15.643Z,101470.06
2023-01-09T19:33:44.420Z,101471.47
2023-01-09T19:36:12.667Z,101479.31
2023-01-09T19:38:40.256Z,101483.38
2023-01-09T19:41:09.220Z,101486.75
2023-01-09T19:43:38.061Z,101491.03
2023-01-09T19:46:11.185Z,101487.31
2023-01-09T19:48:38.974Z,101494.88
2023-01-09T19:51:08.166Z,101498.72
2023-01-09T19:53:36.897Z,101491.28
2023-01-09T19:56:09.425Z,101489.41
2023-01-09T19:58:37.016Z,101485.91
2023-01-09T20:01:13.549Z,101487.03
2023-01-09T20:03:46.629Z,101493.47
2023-01-09T20:06:19.018Z,101501.78
2023-01-09T20:08:53.812Z,101502.78
2023-01-09T20:11:29.570Z,101509.53
2023-01-09T20:13:57.526Z,101513.00
2023-01-09T20:16:31.296Z,101521.72
2023-01-09T20:19:01.019Z,101520.94
2023-01-09T20:21:30.148Z,101522.03
2023-01-09T20:24:00.465Z,101523.94
2023-01-09T20:26:29.081Z,101517.88
2023-01-09T20:28:57.508Z,101517.81
2023-01-09T20:31:28.375Z,101517.00
2023-01-09T20:33:56.004Z,101523.41
2023-01-09T20:36:27.610Z,101515.25
2023-01-09T20:38:56.395Z,101523.78
2023-01-09T20:41:24.470Z,101515.88
2023-01-09T20:43:55.728Z,101523.72
2023-01-09T20:46:28.017Z,101529.69
2023-01-09T20:48:57.917Z,101529.84
2023-01-09T20:51:26.023Z,101535.81
2023-01-09T20:53:56.978Z,101541.63
2023-01-09T20:56:26.160Z,101539.03
2023-01-09T20:58:53.991Z,101543.16
2023-01-09T21:01:23.144Z,101552.28
2023-01-09T21:03:52.445Z,101551.66
2023-01-09T21:06:22.086Z,101552.19
2023-01-09T21:08:51.093Z,101552.72
2023-01-09T21:11:20.111Z,101562.09
2023-01-09T21:13:48.126Z,101556.63
2023-01-09T21:16:20.188Z,101569.44
2023-01-09T21:18:49.308Z,101563.13
2023-01-09T21:21:21.501Z,101551.03
2023-01-09T21:23:53.991Z,101546.72
2023-01-09T21:26:31.623Z,101557.34
2023-01-09T21:29:02.516Z,101547.66
2023-01-09T21:31:35.173Z,101556.03
2023-01-09T21:34:06.065Z,101553.97
2023-01-09T21:36:35.504Z,101572.88
2023-01-09T21:39:06.888Z,101558.25
2023-01-09T21:41:54.516Z,101562.59
2023-01-09T21:44:40.656Z,101560.13
2023-01-09T21:47:08.328Z,101562.66
2023-01-09T21:49:40.339Z,101579.78
2023-01-09T21:52:08.623Z,101583.31
2023-01-09T21:54:36.587Z,101583.06
2023-01-09T21:57:04.309Z,101589.94
2023-01-09T21:59:32.278Z,101584.66
2023-01-09T22:01:59.942Z,101580.41
2023-01-09T22:04:28.930Z,101586.38
2023-01-09T22:06:56.790Z,101589.28
2023-01-09T22:09:24.248Z,101597.28
2023-01-09T22:11:51.554Z,101609.66
2023-01-09T22:14:19.102Z,101622.69
2023-01-09T22:16:47.287Z,101609.13
2023-01-09T22:19:19.361Z,101608.19
2023-01-09T22:21:47.441Z,101599.63
2023-01-09T22:24:17.240Z,101605.94
2023-01-09T22:26:45.536Z,101621.84
2023-01-09T22:29:13.160Z,101624.53
2023-01-09T22:31:40.903Z,101624.00
2023-01-09T22:34:14.927Z,101623.69
2023-01-09T22:36:42.754Z,101617.56
2023-01-09T22:39:13.256Z,101611.28
2023-01-09T22:41:41.088Z,101609.84
2023-01-09T22:44:11.363Z,101616.22
2023-01-09T22:46:39.553Z,101621.00
2023-01-09T22:49:07.277Z,101619.19
2023-01-09T22:51:34.967Z,101615.06
2023-01-09T22:54:02.524Z,101619.47
2023-01-09T22:56:32.296Z,101622.72
2023-01-09T22:59:01.151Z,101618.19
2023-01-09T23:01:28.882Z,101625.81
2023-01-09T23:03:56.424Z,101629.00
2023-01-09T23:06:25.390Z,101627.97
2023-01-09T23:08:53.540Z,101629.56
2023-01-09T23:11:48.270Z,101628.69
2023-01-09T23:14:16.368Z,101631.53
2023-01-09T23:16:43.935Z,101622.03
2023-01-09T23:19:17.335Z,101623.06
2023-01-09T23:21:45.225Z,101626.56
2023-01-09T23:24:18.589Z,101641.84
2023-01-09T23:26:46.505Z,101638.41
2023-01-09T23:29:14.535Z,101637.66
2023-01-09T23:31:42.073Z,101641.91
2023-01-09T23:34:14.554Z,101644.44
2023-01-09T23:36:42.228Z,101640.13
2023-01-09T23:39:10.310Z,101643.50
2023-01-09T23:41:56.246Z,101632.31
2023-01-09T23:44:24.062Z,101641.00
2023-01-09T23:46:52.067Z,101633.56
2023-01-09T23:49:20.137Z,101639.53
2023-01-09T23:51:47.547Z,101635.19
2023-01-09T23:54:16.146Z,101625.50
2023-01-09T23:56:43.574Z,101622.81
2023-01-09T23:59:12.670Z,101617.94
